Time;durP1;ratioP1;P1;durP2;ratioP2;P2;SDS_P1;SDS_P2;PMS_P1;PMS_P2;Temp;Humidity;BMP_temperature;BMP_pressure;BME280_temperature;BME280_humidity;BME280_pressure;Samples;Min_cycle;Max_cycle;Signal;HPM_P1;HPM_P2
2021/09/26 00:00:50;;;;;;;18.38;11.27;;;17.60;99.90;;;;;;2104802;28;20070;-73
2021/09/26 00:01:51;;;;;;;18.92;12.00;;;17.60;99.90;;;;;;2104572;28;20048;-72
2021/09/26 00:02:52;;;;;;;17.13;11.82;;;17.60;99.90;;;;;;2105181;28;20025;-73
2021/09/26 00:03:52;;;;;;;17.00;11.18;;;17.60;99.90;;;;;;2104843;28;20016;-73
2021/09/26 00:04:54;;;;;;;15.10;11.82;;;17.60;99.90;;;;;;2101759;28;20074;-73
2021/09/26 00:05:55;;;;;;;20.63;12.48;;;17.60;99.90;;;;;;2104532;28;20020;-72
2021/09/26 00:06:56;;;;;;;21.52;12.45;;;17.60;99.90;;;;;;2101664;28;20159;-72
2021/09/26 00:07:56;;;;;;;20.60;13.02;;;17.60;99.90;;;;;;2105678;28;20066;-71
2021/09/26 00:08:57;;;;;;;19.02;11.48;;;17.60;99.90;;;;;;2099067;28;20029;-71
2021/09/26 00:09:58;;;;;;;18.17;12.27;;;17.50;99.90;;;;;;2105223;28;20020;-70
2021/09/26 00:11:05;;;;;;;18.65;12.75;;;17.50;99.90;;;;;;2104730;28;20031;-70
2021/09/26 00:12:06;;;;;;;20.55;12.40;;;17.50;99.90;;;;;;2104520;28;20044;-70
2021/09/26 00:13:07;;;;;;;21.75;12.98;;;17.50;99.90;;;;;;2095115;28;20067;-70
2021/09/26 00:14:09;;;;;;;17.40;12.25;;;17.40;99.90;;;;;;2094630;28;20027;-70
2021/09/26 00:15:13;;;;;;;17.95;12.05;;;17.50;99.90;;;;;;2092654;28;20104;-70
2021/09/26 00:16:14;;;;;;;21.95;12.50;;;17.40;99.90;;;;;;2097738;28;20058;-70
2021/09/26 00:17:15;;;;;;;20.17;13.57;;;17.40;99.90;;;;;;2097907;28;20028;-70
2021/09/26 00:18:16;;;;;;;21.08;13.15;;;17.40;99.90;;;;;;2098245;28;20384;-69
2021/09/26 00:19:16;;;;;;;18.05;13.57;;;17.40;99.90;;;;;;2097752;28;20021;-69
2021/09/26 00:20:18;;;;;;;19.77;13.77;;;17.40;99.90;;;;;;2097295;28;20017;-69
2021/09/26 00:21:19;;;;;;;;;;;17.40;99.90;;;;;;2095814;28;20035;-69
2021/09/26 00:22:20;;;;;;;15.02;12.10;;;17.40;99.90;;;;;;2094730;28;19911;-69
2021/09/26 00:23:21;;;;;;;19.33;13.80;;;17.40;99.90;;;;;;2089684;28;20021;-68
2021/09/26 00:24:21;;;;;;;22.40;13.98;;;17.40;99.90;;;;;;2097356;28;20028;-68
2021/09/26 00:25:22;;;;;;;24.35;15.30;;;17.30;99.90;;;;;;2097737;28;20032;-68
2021/09/26 00:26:23;;;;;;;22.48;13.48;;;17.40;99.90;;;;;;2096829;28;20028;-68
2021/09/26 00:27:24;;;;;;;28.13;14.13;;;17.40;99.90;;;;;;2096810;28;20025;-68
2021/09/26 00:28:25;;;;;;;22.15;13.90;;;17.40;99.90;;;;;;2097828;28;20027;-68
2021/09/26 00:29:26;;;;;;;20.25;14.07;;;17.30;99.90;;;;;;2095146;28;20028;-68
2021/09/26 00:30:27;;;;;;;20.48;13.98;;;17.30;99.90;;;;;;2096844;28;20587;-68
2021/09/26 00:31:27;;;;;;;18.42;13.65;;;17.40;99.90;;;;;;2097101;28;20373;-68
2021/09/26 00:32:28;;;;;;;20.42;14.38;;;17.30;99.90;;;;;;2097612;28;20049;-68
2021/09/26 00:33:29;;;;;;;22.30;15.50;;;17.30;99.90;;;;;;2098070;28;20054;-68
2021/09/26 00:34:30;;;;;;;20.83;14.68;;;17.30;99.90;;;;;;2097890;28;20491;-68
2021/09/26 00:35:31;;;;;;;29.90;14.18;;;17.30;99.90;;;;;;2098000;28;20032;-69
2021/09/26 00:36:31;;;;;;;22.92;14.13;;;17.30;99.90;;;;;;2097325;28;20462;-68
2021/09/26 00:37:32;;;;;;;21.60;14.10;;;17.30;99.90;;;;;;2097203;28;20013;-67
2021/09/26 00:38:33;;;;;;;21.80;14.82;;;17.30;99.90;;;;;;2097937;28;20058;-69
2021/09/26 00:39:34;;;;;;;21.17;14.75;;;17.30;99.90;;;;;;2095007;28;20377;-68
2021/09/26 00:40:35;;;;;;;23.33;14.75;;;17.30;99.90;;;;;;2094416;28;20028;-68
2021/09/26 00:41:35;;;;;;;20.85;14.88;;;17.30;99.90;;;;;;2101728;28;20031;-68
2021/09/26 00:42:36;;;;;;;22.55;15.43;;;17.20;99.90;;;;;;2102204;28;20020;-69
2021/09/26 00:43:37;;;;;;;21.38;15.50;;;17.20;99.90;;;;;;2097672;28;20088;-68
2021/09/26 00:44:38;;;;;;;20.17;15.60;;;17.30;99.90;;;;;;2097880;28;20025;-68
2021/09/26 00:45:39;;;;;;;22.10;14.50;;;17.20;99.90;;;;;;2097917;28;20025;-69
2021/09/26 00:46:40;;;;;;;24.33;15.88;;;17.20;99.90;;;;;;2097329;28;20020;-68
2021/09/26 00:47:41;;;;;;;22.10;15.30;;;17.30;99.90;;;;;;2090892;28;20132;-69
2021/09/26 00:48:42;;;;;;;24.05;15.38;;;17.20;99.90;;;;;;2090058;28;20020;-68
2021/09/26 00:49:42;;;;;;;24.10;16.52;;;17.20;99.90;;;;;;2094938;28;20047;-68
2021/09/26 00:50:43;;;;;;;23.70;15.38;;;17.20;99.90;;;;;;2097897;28;20459;-69
2021/09/26 00:51:44;;;;;;;23.52;15.93;;;17.30;99.90;;;;;;2098047;28;20439;-69
2021/09/26 00:52:47;;;;;;;23.33;15.68;;;17.30;99.90;;;;;;2097750;28;20063;-68
2021/09/26 00:53:48;;;;;;;21.38;15.57;;;17.30;99.90;;;;;;2097745;28;20017;-69
2021/09/26 00:54:49;;;;;;;24.90;16.80;;;17.20;99.90;;;;;;2091695;28;20037;-69
2021/09/26 00:55:53;;;;;;;27.52;15.40;;;17.20;99.90;;;;;;2097522;28;20119;-68
2021/09/26 00:56:54;;;;;;;25.58;16.40;;;17.30;99.90;;;;;;2097224;28;20107;-70
2021/09/26 00:57:54;;;;;;;24.15;15.98;;;17.30;99.90;;;;;;2097810;28;20028;-69
2021/09/26 00:58:55;;;;;;;26.40;16.30;;;17.30;99.90;;;;;;2097525;28;20035;-69
2021/09/26 00:59:58;;;;;;;27.33;16.35;;;17.30;99.90;;;;;;2096844;28;20028;-69
2021/09/26 01:00:59;;;;;;;25.52;15.35;;;17.30;99.90;;;;;;2088556;28;20033;-69
2021/09/26 01:01:59;;;;;;;22.95;15.95;;;17.30;99.90;;;;;;2090370;28;20025;-69
2021/09/26 01:03:00;;;;;;;23.90;15.73;;;17.30;99.90;;;;;;2105380;28;20023;-68
2021/09/26 01:04:01;;;;;;;24.27;17.52;;;17.30;99.90;;;;;;2097493;28;20092;-70
2021/09/26 01:05:04;;;;;;;25.25;15.52;;;17.30;99.90;;;;;;2097462;28;20021;-68
2021/09/26 01:06:47;;;;;;;22.25;15.43;;;17.40;99.90;;;;;;2097546;28;20020;-68
2021/09/26 01:08:17;;;;;;;23.60;16.23;;;17.30;99.90;;;;;;2090503;28;20036;-69
2021/09/26 01:09:43;;;;;;;20.75;15.15;;;17.40;99.90;;;;;;2090524;28;20405;-69
2021/09/26 01:11:14;;;;;;;22.58;16.02;;;17.40;99.90;;;;;;2095464;28;20024;-69
2021/09/26 01:12:47;;;;;;;20.25;15.02;;;17.40;99.90;;;;;;2092616;28;20032;-70
2021/09/26 01:14:32;;;;;;;22.75;16.08;;;17.40;99.90;;;;;;2092591;28;20052;-71
2021/09/26 01:15:44;;;;;;;26.45;16.63;;;17.40;99.90;;;;;;2089635;28;20056;-69
2021/09/26 01:17:12;;;;;;;27.42;16.10;;;17.40;99.90;;;;;;2097757;28;20028;-70
2021/09/26 01:18:47;;;;;;;22.08;15.13;;;17.50;99.90;;;;;;2092113;28;20047;-70
2021/09/26 01:20:26;;;;;;;23.08;15.35;;;17.50;99.90;;;;;;2088850;28;20032;-69
2021/09/26 01:21:29;;;;;;;27.60;16.42;;;17.50;99.90;;;;;;2086485;28;20047;-69
2021/09/26 01:22:51;;;;;;;23.88;16.17;;;17.50;99.90;;;;;;2096602;28;20048;-69
2021/09/26 01:24:19;;;;;;;28.25;16.40;;;17.50;99.90;;;;;;2097415;28;20097;-69
2021/09/26 01:25:39;;;;;;;23.58;15.90;;;17.50;99.90;;;;;;2096558;28;20069;-70
2021/09/26 01:26:40;;;;;;;25.13;16.92;;;17.50;99.90;;;;;;2097668;28;20099;-69
2021/09/26 01:28:05;;;;;;;24.67;16.55;;;17.50;99.90;;;;;;2097445;28;20024;-70
2021/09/26 01:29:30;;;;;;;30.73;16.83;;;17.50;99.90;;;;;;2088822;28;20153;-69
2021/09/26 01:30:52;;;;;;;27.05;16.52;;;17.50;99.90;;;;;;2095668;28;20032;-69
2021/09/26 01:31:55;;;;;;;22.30;16.88;;;17.60;99.90;;;;;;2086697;28;20531;-70
2021/09/26 01:33:35;;;;;;;28.60;18.08;;;17.60;99.90;;;;;;2091645;28;20052;-69
2021/09/26 01:34:43;;;;;;;28.75;17.50;;;17.60;99.90;;;;;;2087829;28;20069;-70
2021/09/26 01:35:55;;;;;;;27.50;18.10;;;17.60;99.90;;;;;;2088034;28;20066;-69
2021/09/26 01:37:06;;;;;;;23.13;18.02;;;17.60;99.90;;;;;;2095461;28;20025;-70
2021/09/26 01:38:16;;;;;;;25.45;17.50;;;17.60;99.90;;;;;;2092936;28;20601;-69
2021/09/26 01:39:44;;;;;;;28.35;18.65;;;17.60;99.90;;;;;;2095032;28;20056;-70
2021/09/26 01:41:02;;;;;;;30.35;18.27;;;17.60;99.90;;;;;;2093632;28;20050;-69
2021/09/26 01:42:12;;;;;;;26.38;17.77;;;17.60;99.90;;;;;;2097144;28;20024;-69
2021/09/26 01:43:16;;;;;;;29.00;18.95;;;17.60;99.90;;;;;;2097592;28;20597;-69
2021/09/26 01:44:32;;;;;;;32.90;18.10;;;17.60;99.90;;;;;;2094043;28;20048;-69
2021/09/26 01:45:51;;;;;;;30.33;18.40;;;17.60;99.90;;;;;;2092984;28;20161;-70
2021/09/26 01:46:55;;;;;;;28.38;18.98;;;17.60;99.90;;;;;;2096690;28;20016;-69
2021/09/26 01:48:10;;;;;;;29.55;18.95;;;17.70;99.90;;;;;;2097209;28;20016;-69
2021/09/26 01:49:17;;;;;;;29.73;19.02;;;17.60;99.90;;;;;;2094286;28;20500;-70
2021/09/26 01:50:21;;;;;;;30.48;19.55;;;17.60;99.90;;;;;;2097480;28;20094;-69
2021/09/26 01:51:23;;;;;;;33.33;19.50;;;17.70;99.90;;;;;;2096859;28;20603;-69
2021/09/26 01:52:31;;;;;;;34.08;19.67;;;17.70;99.90;;;;;;2097582;28;20019;-69
2021/09/26 01:53:32;;;;;;;29.90;19.70;;;17.70;99.90;;;;;;2096900;28;20020;-71
2021/09/26 01:54:33;;;;;;;29.48;18.83;;;17.70;99.90;;;;;;2096886;28;20518;-70
2021/09/26 01:55:34;;;;;;;30.50;19.50;;;17.60;99.90;;;;;;2090443;28;20033;-70
2021/09/26 01:56:37;;;;;;;24.65;18.92;;;17.70;99.90;;;;;;2093697;28;20024;-69
2021/09/26 01:57:42;;;;;;;32.40;19.60;;;17.70;99.90;;;;;;2097009;28;20040;-69
2021/09/26 01:58:45;;;;;;;28.95;19.67;;;17.70;99.90;;;;;;2097105;28;20480;-70
2021/09/26 01:59:51;;;;;;;32.20;20.20;;;17.60;99.90;;;;;;2096983;28;20021;-70
2021/09/26 02:00:52;;;;;;;26.42;19.15;;;17.60;99.90;;;;;;2095963;28;20453;-70
2021/09/26 02:01:56;;;;;;;32.17;19.80;;;17.60;99.90;;;;;;2091792;28;20059;-70
2021/09/26 02:02:58;;;;;;;29.83;19.60;;;17.60;99.90;;;;;;2093926;28;20021;-70
2021/09/26 02:03:59;;;;;;;31.10;20.30;;;17.60;99.90;;;;;;2096005;28;20030;-70
2021/09/26 02:05:02;;;;;;;28.73;19.27;;;17.60;99.90;;;;;;2096510;28;20480;-71
2021/09/26 02:06:04;;;;;;;28.58;18.67;;;17.70;99.90;;;;;;2097422;28;20016;-70
2021/09/26 02:07:05;;;;;;;29.00;19.30;;;17.70;99.90;;;;;;2096832;28;20025;-70
2021/09/26 02:08:07;;;;;;;33.75;19.92;;;17.70;99.90;;;;;;2095867;28;20025;-71
2021/09/26 02:09:11;;;;;;;29.45;20.33;;;17.70;99.90;;;;;;2097040;28;20547;-70
2021/09/26 02:10:13;;;;;;;33.35;20.58;;;17.70;99.90;;;;;;2090608;28;20066;-69
2021/09/26 02:11:14;;;;;;;30.05;20.45;;;17.70;99.90;;;;;;2093518;28;20112;-69
2021/09/26 02:12:16;;;;;;;34.88;20.27;;;17.70;99.90;;;;;;2096013;28;20060;-70
2021/09/26 02:13:17;;;;;;;34.28;20.67;;;17.70;99.90;;;;;;2096537;28;20028;-69
2021/09/26 02:14:18;;;;;;;28.20;19.92;;;17.70;99.90;;;;;;2096357;28;20030;-69
2021/09/26 02:15:22;;;;;;;35.67;21.40;;;17.70;99.90;;;;;;2096099;28;20119;-69
2021/09/26 02:16:24;;;;;;;31.65;20.50;;;17.70;99.90;;;;;;2089948;28;20106;-70
2021/09/26 02:17:29;;;;;;;32.72;20.73;;;17.70;99.90;;;;;;2095178;28;20024;-69
2021/09/26 02:18:31;;;;;;;32.90;21.00;;;17.70;99.90;;;;;;2090212;28;20021;-70
2021/09/26 02:19:34;;;;;;;35.25;21.85;;;17.70;99.90;;;;;;2097433;28;20496;-69
2021/09/26 02:20:36;;;;;;;35.40;20.17;;;17.70;99.90;;;;;;2096871;28;20074;-70
2021/09/26 02:21:37;;;;;;;38.20;20.58;;;17.70;99.90;;;;;;2097378;28;20055;-70
2021/09/26 02:22:39;;;;;;;31.20;20.70;;;17.70;99.90;;;;;;2096399;28;20101;-70
2021/09/26 02:23:40;;;;;;;32.95;21.02;;;17.70;99.90;;;;;;2094899;28;20099;-70
2021/09/26 02:24:42;;;;;;;37.35;22.50;;;17.70;99.90;;;;;;2096021;28;20058;-71
2021/09/26 02:25:43;;;;;;;37.63;21.00;;;17.70;99.90;;;;;;2096405;28;20012;-70
2021/09/26 02:26:45;;;;;;;33.17;21.55;;;17.70;99.90;;;;;;2088712;28;20202;-70
2021/09/26 02:27:46;;;;;;;38.63;22.42;;;17.70;99.90;;;;;;2094695;28;20031;-70
2021/09/26 02:28:47;;;;;;;34.90;22.60;;;17.70;99.90;;;;;;2096869;28;20020;-70
2021/09/26 02:29:48;;;;;;;34.88;22.23;;;17.70;99.90;;;;;;2097272;28;20020;-70
2021/09/26 02:30:48;;;;;;;40.13;21.98;;;17.70;99.90;;;;;;2097177;28;20032;-70
2021/09/26 02:31:49;;;;;;;39.35;22.85;;;17.70;99.90;;;;;;2095955;28;20043;-70
2021/09/26 02:32:50;;;;;;;32.65;21.65;;;17.70;99.90;;;;;;2090024;28;20047;-70
2021/09/26 02:33:51;;;;;;;38.85;22.52;;;17.80;99.90;;;;;;2096966;28;20031;-71
2021/09/26 02:34:52;;;;;;;36.28;21.85;;;17.70;99.90;;;;;;2089434;28;20511;-70
2021/09/26 02:35:52;;;;;;;40.83;21.52;;;17.70;99.90;;;;;;2092800;28;20028;-70
2021/09/26 02:36:53;;;;;;;34.55;22.35;;;17.70;99.90;;;;;;2097097;28;20028;-70
2021/09/26 02:37:54;;;;;;;39.40;22.15;;;17.70;99.90;;;;;;2093474;28;20028;-70
2021/09/26 02:38:55;;;;;;;38.53;23.05;;;17.70;99.90;;;;;;2095715;28;20146;-70
2021/09/26 02:39:56;;;;;;;35.45;21.63;;;17.70;99.90;;;;;;2094278;28;20028;-70
2021/09/26 02:41:14;;;;;;;35.80;21.63;;;17.70;99.90;;;;;;2092928;28;20043;-70
2021/09/26 02:42:26;;;;;;;38.20;21.50;;;17.70;99.90;;;;;;2089542;28;20431;-70
2021/09/26 02:43:44;;;;;;;34.10;21.75;;;17.70;99.90;;;;;;2097097;28;20017;-70
2021/09/26 02:44:57;;;;;;;33.97;22.58;;;17.80;99.90;;;;;;2096823;28;20024;-70
2021/09/26 02:46:13;;;;;;;38.72;22.30;;;17.80;99.90;;;;;;2092893;28;21278;-70
2021/09/26 02:47:21;;;;;;;37.33;22.10;;;17.70;99.90;;;;;;2088919;28;20021;-70
2021/09/26 02:48:27;;;;;;;32.70;22.45;;;17.70;99.90;;;;;;2093733;28;20008;-70
2021/09/26 02:49:28;;;;;;;39.35;22.13;;;17.70;99.90;;;;;;2096950;28;20468;-71
2021/09/26 02:50:30;;;;;;;39.15;22.60;;;17.70;99.90;;;;;;2094600;28;20020;-70
2021/09/26 02:51:31;;;;;;;38.38;22.48;;;17.70;99.90;;;;;;2091367;28;20032;-70
2021/09/26 02:52:32;;;;;;;35.80;21.92;;;17.70;99.90;;;;;;2089766;28;20151;-69
2021/09/26 02:53:34;;;;;;;37.90;23.13;;;17.70;99.90;;;;;;2096300;28;20438;-70
2021/09/26 02:54:40;;;;;;;;;;;17.60;99.90;;;;;;2096991;28;20380;-70
2021/09/26 02:55:42;;;;;;;33.85;21.98;;;17.60;99.90;;;;;;2096795;28;19958;-70
2021/09/26 02:56:45;;;;;;;33.55;21.35;;;17.60;99.90;;;;;;2097030;28;20039;-70
2021/09/26 02:57:46;;;;;;;46.55;23.15;;;17.60;99.90;;;;;;2096335;28;20046;-72
2021/09/26 02:58:47;;;;;;;38.00;23.37;;;17.60;99.90;;;;;;2096558;28;20028;-69
2021/09/26 02:59:48;;;;;;;38.13;22.85;;;17.60;99.90;;;;;;2097194;28;20287;-69
2021/09/26 03:00:49;;;;;;;39.75;22.38;;;17.60;99.90;;;;;;2090701;28;20032;-70
2021/09/26 03:01:54;;;;;;;40.45;22.50;;;17.60;99.90;;;;;;2096098;28;20523;-69
2021/09/26 03:03:06;;;;;;;35.67;23.45;;;17.60;99.90;;;;;;2091385;28;20055;-69
2021/09/26 03:04:07;;;;;;;39.45;23.52;;;17.60;99.90;;;;;;2096376;28;20130;-70
2021/09/26 03:05:08;;;;;;;35.65;23.48;;;17.60;99.90;;;;;;2096094;28;20017;-70
2021/09/26 03:06:09;;;;;;;40.53;22.83;;;17.60;99.90;;;;;;2096282;28;20615;-70
2021/09/26 03:07:12;;;;;;;38.15;23.73;;;17.60;99.90;;;;;;2097029;28;20095;-70
2021/09/26 03:08:13;;;;;;;42.35;23.58;;;17.60;99.90;;;;;;2097002;28;20017;-70
2021/09/26 03:09:14;;;;;;;40.35;23.35;;;17.60;99.90;;;;;;2096732;28;20341;-70
2021/09/26 03:10:15;;;;;;;42.35;23.50;;;17.60;99.90;;;;;;2093167;28;20039;-70
2021/09/26 03:11:15;;;;;;;37.53;22.83;;;17.60;99.90;;;;;;2093919;28;20510;-70
2021/09/26 03:12:21;;;;;;;35.17;22.00;;;17.60;99.90;;;;;;2096291;28;20025;-69
2021/09/26 03:13:22;;;;;;;42.13;22.70;;;17.60;99.90;;;;;;2096220;28;20376;-70
2021/09/26 03:14:23;;;;;;;40.00;23.20;;;17.60;99.90;;;;;;2096922;28;20044;-70
2021/09/26 03:15:24;;;;;;;38.70;22.15;;;17.60;99.90;;;;;;2096644;28;20021;-69
2021/09/26 03:16:25;;;;;;;42.10;23.23;;;17.60;99.90;;;;;;2097151;28;20052;-69
2021/09/26 03:17:26;;;;;;;40.97;23.67;;;17.60;99.90;;;;;;2096763;28;20028;-68
2021/09/26 03:18:26;;;;;;;42.47;22.77;;;17.60;99.90;;;;;;2089332;28;20033;-67
2021/09/26 03:19:27;;;;;;;36.60;22.33;;;17.60;99.90;;;;;;2095458;28;20111;-66
2021/09/26 03:20:28;;;;;;;46.10;24.23;;;17.70;99.90;;;;;;2095527;28;20028;-67
2021/09/26 03:21:29;;;;;;;44.63;23.48;;;17.70;99.90;;;;;;2097028;28;20096;-67
2021/09/26 03:22:29;;;;;;;46.15;24.15;;;17.70;99.90;;;;;;2096982;28;20024;-66
2021/09/26 03:23:30;;;;;;;43.05;23.48;;;17.70;99.90;;;;;;2096759;28;20024;-67
2021/09/26 03:24:32;;;;;;;38.88;23.25;;;17.70;99.90;;;;;;2088106;28;20090;-67
2021/09/26 03:25:33;;;;;;;38.72;22.65;;;17.70;99.90;;;;;;2095201;28;20021;-67
2021/09/26 03:26:33;;;;;;;40.97;23.40;;;17.80;99.90;;;;;;2096376;28;20033;-67
2021/09/26 03:27:35;;;;;;;40.95;22.58;;;17.80;99.90;;;;;;2096827;28;20013;-67
2021/09/26 03:28:35;;;;;;;42.07;23.33;;;17.70;99.90;;;;;;2096700;28;20066;-67
2021/09/26 03:29:41;;;;;;;44.63;23.23;;;17.80;99.90;;;;;;2096782;28;20328;-67
2021/09/26 03:30:42;;;;;;;33.58;22.40;;;17.80;99.90;;;;;;2093195;28;20013;-68
2021/09/26 03:31:42;;;;;;;41.20;23.27;;;17.80;99.90;;;;;;2084541;28;20064;-67
2021/09/26 03:32:43;;;;;;;41.58;24.42;;;17.80;99.90;;;;;;2092503;28;20017;-67
2021/09/26 03:33:44;;;;;;;41.65;24.65;;;17.80;99.90;;;;;;2096708;28;20592;-67
2021/09/26 03:34:45;;;;;;;38.13;22.80;;;17.80;99.90;;;;;;2096330;28;20025;-67
2021/09/26 03:35:46;;;;;;;46.17;25.00;;;17.80;99.90;;;;;;2089462;28;20058;-67
2021/09/26 03:36:46;;;;;;;46.40;24.40;;;17.80;99.90;;;;;;2095523;28;20024;-67
2021/09/26 03:37:47;;;;;;;44.05;23.05;;;17.80;99.90;;;;;;2095343;28;20025;-67
2021/09/26 03:38:48;;;;;;;40.15;22.30;;;17.80;99.90;;;;;;2096813;28;20024;-67
2021/09/26 03:39:50;;;;;;;38.63;23.27;;;17.80;99.90;;;;;;2096103;28;20036;-67
2021/09/26 03:40:51;;;;;;;45.28;23.10;;;17.80;99.90;;;;;;2096203;28;20044;-67
2021/09/26 03:41:52;;;;;;;43.83;23.42;;;17.70;99.90;;;;;;2095545;28;20503;-68
2021/09/26 03:42:53;;;;;;;42.83;23.20;;;17.80;99.90;;;;;;2096150;28;20021;-67
2021/09/26 03:43:53;;;;;;;42.88;22.95;;;17.80;99.90;;;;;;2096280;28;20027;-68
2021/09/26 03:44:54;;;;;;;45.42;23.95;;;17.80;99.90;;;;;;2094430;28;20019;-67
2021/09/26 03:45:55;;;;;;;41.45;23.20;;;17.80;99.90;;;;;;2095526;28;20016;-67
2021/09/26 03:46:56;;;;;;;43.33;22.35;;;17.80;99.90;;;;;;2094030;28;20020;-67
2021/09/26 03:47:56;;;;;;;42.78;23.50;;;17.80;99.90;;;;;;2093891;28;20082;-67
2021/09/26 03:48:57;;;;;;;44.38;23.75;;;17.90;99.90;;;;;;2097579;28;20086;-67
2021/09/26 03:49:58;;;;;;;41.55;23.17;;;17.90;99.90;;;;;;2097511;28;20012;-67
2021/09/26 03:50:59;;;;;;;42.92;24.05;;;17.90;99.90;;;;;;2097404;28;20024;-67
2021/09/26 03:51:59;;;;;;;41.05;22.10;;;17.90;99.90;;;;;;2097599;28;20031;-67
2021/09/26 03:53:00;;;;;;;42.45;23.13;;;17.90;99.90;;;;;;2095307;28;20021;-67
2021/09/26 03:54:01;;;;;;;38.35;22.52;;;17.90;99.90;;;;;;2097956;28;20527;-67
2021/09/26 03:55:08;;;;;;;47.45;23.45;;;17.90;99.90;;;;;;2097953;28;20024;-67
2021/09/26 03:56:09;;;;;;;44.20;23.98;;;17.80;99.90;;;;;;2098358;28;20021;-67
2021/09/26 03:57:09;;;;;;;41.42;23.45;;;17.90;99.90;;;;;;2098333;28;20025;-67
2021/09/26 03:58:10;;;;;;;40.50;22.35;;;17.90;99.90;;;;;;2097901;28;20537;-67
2021/09/26 03:59:12;;;;;;;39.67;23.20;;;17.90;99.90;;;;;;2097733;28;20020;-67
2021/09/26 04:00:16;;;;;;;39.97;22.98;;;17.90;99.90;;;;;;2097613;28;20510;-67
2021/09/26 04:01:17;;;;;;;43.10;23.95;;;17.90;99.90;;;;;;2095548;28;20043;-67
2021/09/26 04:02:18;;;;;;;40.00;23.20;;;17.90;99.90;;;;;;2096780;28;20067;-67
2021/09/26 04:03:18;;;;;;;37.60;22.52;;;17.90;99.90;;;;;;2095408;28;20600;-67
2021/09/26 04:04:19;;;;;;;41.03;23.08;;;17.90;99.90;;;;;;2098084;28;20048;-68
2021/09/26 04:05:20;;;;;;;55.30;22.85;;;17.90;99.90;;;;;;2098272;28;20436;-66
2021/09/26 04:06:20;;;;;;;43.05;23.05;;;17.90;99.90;;;;;;2098047;28;20032;-67
2021/09/26 04:07:21;;;;;;;39.22;22.77;;;17.90;99.90;;;;;;2095220;28;20021;-67
2021/09/26 04:08:22;;;;;;;42.30;22.85;;;17.90;99.90;;;;;;2097056;28;20028;-67
2021/09/26 04:09:22;;;;;;;45.65;23.67;;;17.90;99.90;;;;;;2097207;28;20098;-67
2021/09/26 04:10:23;;;;;;;39.85;23.33;;;17.90;99.90;;;;;;2098076;28;20017;-67
2021/09/26 04:11:24;;;;;;;41.45;23.15;;;17.90;99.90;;;;;;2098240;28;20106;-67
2021/09/26 04:12:24;;;;;;;40.20;22.20;;;17.90;99.90;;;;;;2098131;28;20071;-67
2021/09/26 04:13:25;;;;;;;39.38;21.77;;;17.90;99.90;;;;;;2095059;28;20042;-67
2021/09/26 04:14:26;;;;;;;42.35;22.33;;;17.90;99.90;;;;;;2093241;28;20551;-67
2021/09/26 04:15:26;;;;;;;35.72;22.02;;;17.90;99.90;;;;;;2097721;28;20485;-68
2021/09/26 04:16:28;;;;;;;39.28;22.70;;;17.90;99.90;;;;;;2097201;28;20484;-67
2021/09/26 04:17:28;;;;;;;43.10;20.65;;;17.90;99.90;;;;;;2097379;28;20307;-67
2021/09/26 04:18:29;;;;;;;35.75;21.10;;;17.90;99.90;;;;;;2097617;28;20032;-67
2021/09/26 04:19:30;;;;;;;38.35;21.27;;;17.90;99.90;;;;;;2098370;28;20027;-69
2021/09/26 04:20:30;;;;;;;40.72;21.67;;;18.00;99.90;;;;;;2096908;28;20523;-67
2021/09/26 04:21:31;;;;;;;36.33;20.70;;;18.00;99.90;;;;;;2097627;28;20024;-67
2021/09/26 04:22:33;;;;;;;39.28;20.60;;;18.00;99.90;;;;;;2095572;28;20028;-68
2021/09/26 04:23:34;;;;;;;41.13;21.67;;;18.00;99.90;;;;;;2094921;28;20074;-68
2021/09/26 04:24:34;;;;;;;41.58;22.02;;;18.00;99.90;;;;;;2097439;28;20025;-68
2021/09/26 04:25:35;;;;;;;34.92;22.13;;;18.00;99.90;;;;;;2097311;28;20532;-67
2021/09/26 04:26:36;;;;;;;41.15;21.13;;;18.00;99.90;;;;;;2097913;28;20021;-67
2021/09/26 04:27:37;;;;;;;41.45;21.15;;;18.00;99.90;;;;;;2097987;28;20020;-67
2021/09/26 04:28:37;;;;;;;38.03;20.52;;;18.00;99.90;;;;;;2097370;28;20024;-68
2021/09/26 04:29:38;;;;;;;39.80;21.15;;;18.10;99.90;;;;;;2097359;28;20024;-68
2021/09/26 04:30:39;;;;;;;38.97;22.08;;;18.00;99.90;;;;;;2097813;28;20031;-68
2021/09/26 04:31:40;;;;;;;48.15;23.33;;;18.00;99.90;;;;;;2095865;28;20527;-68
2021/09/26 04:32:40;;;;;;;42.10;21.17;;;18.00;99.90;;;;;;2089406;28;20025;-68
2021/09/26 04:33:41;;;;;;;42.63;20.92;;;18.00;99.90;;;;;;2093624;28;20031;-68
2021/09/26 04:34:42;;;;;;;40.95;21.83;;;18.10;99.90;;;;;;2089933;28;20589;-68
2021/09/26 04:35:42;;;;;;;42.65;21.58;;;18.10;99.90;;;;;;2092271;28;20028;-68
2021/09/26 04:36:43;;;;;;;35.40;20.35;;;18.10;99.90;;;;;;2098001;28;20515;-68
2021/09/26 04:37:44;;;;;;;39.05;21.30;;;18.10;99.90;;;;;;2097377;28;20028;-68
2021/09/26 04:38:44;;;;;;;35.70;20.98;;;18.10;99.90;;;;;;2098140;28;20108;-68
2021/09/26 04:39:45;;;;;;;39.20;20.45;;;18.10;99.90;;;;;;2093074;28;20537;-68
2021/09/26 04:40:46;;;;;;;45.80;22.40;;;18.10;99.90;;;;;;2097706;28;20113;-68
2021/09/26 04:41:47;;;;;;;42.67;20.52;;;18.00;99.90;;;;;;2097186;28;20512;-68
2021/09/26 04:42:47;;;;;;;35.60;21.02;;;18.10;99.90;;;;;;2095628;28;20024;-68
2021/09/26 04:43:48;;;;;;;40.20;21.05;;;18.00;99.90;;;;;;2096096;28;20035;-67
2021/09/26 04:44:49;;;;;;;42.30;20.70;;;18.10;99.90;;;;;;2098099;28;20055;-68
2021/09/26 04:45:49;;;;;;;39.42;19.95;;;18.00;99.90;;;;;;2097757;28;20115;-68
2021/09/26 04:46:50;;;;;;;36.78;20.55;;;18.10;99.90;;;;;;2093987;28;20016;-69
2021/09/26 04:47:51;;;;;;;33.53;20.38;;;18.00;99.90;;;;;;2091548;28;20515;-69
2021/09/26 04:48:52;;;;;;;41.83;20.27;;;18.00;99.90;;;;;;2091700;28;20053;-68
2021/09/26 04:49:52;;;;;;;46.95;22.05;;;18.00;99.90;;;;;;2095946;28;20025;-68
2021/09/26 04:50:53;;;;;;;48.95;20.60;;;18.00;99.90;;;;;;2094956;28;20055;-68
2021/09/26 04:51:58;;;;;;;36.20;20.75;;;18.00;99.90;;;;;;2092587;28;20060;-68
2021/09/26 04:52:59;;;;;;;38.78;20.38;;;18.00;99.90;;;;;;2089843;28;20043;-68
2021/09/26 04:54:00;;;;;;;49.97;21.02;;;18.00;99.90;;;;;;2097132;28;20020;-67
2021/09/26 04:55:01;;;;;;;38.30;20.05;;;18.00;99.90;;;;;;2097009;28;20027;-69
2021/09/26 04:56:01;;;;;;;41.20;21.15;;;18.00;99.90;;;;;;2097935;28;20048;-67
2021/09/26 04:57:02;;;;;;;37.85;19.60;;;18.00;99.90;;;;;;2094746;28;20020;-68
2021/09/26 04:58:06;;;;;;;39.40;20.60;;;18.00;99.90;;;;;;2090051;28;20417;-68
2021/09/26 04:59:06;;;;;;;40.88;20.80;;;18.00;99.90;;;;;;2090127;28;20388;-69
2021/09/26 05:00:09;;;;;;;35.72;19.90;;;18.00;99.90;;;;;;2097756;28;20103;-68
2021/09/26 05:01:10;;;;;;;44.67;20.75;;;18.00;99.90;;;;;;2097767;28;20020;-69
2021/09/26 05:02:11;;;;;;;38.30;19.83;;;18.00;99.90;;;;;;2097540;28;20020;-68
2021/09/26 05:03:12;;;;;;;41.08;20.48;;;18.00;99.90;;;;;;2098083;28;20484;-67
2021/09/26 05:04:13;;;;;;;38.58;19.63;;;18.00;99.90;;;;;;2089492;28;20078;-67
2021/09/26 05:05:14;;;;;;;40.28;19.75;;;18.00;99.90;;;;;;2091914;28;20024;-67
2021/09/26 05:06:15;;;;;;;45.53;20.80;;;18.00;99.90;;;;;;2098035;28;20067;-66
2021/09/26 05:07:16;;;;;;;43.20;20.88;;;18.00;99.90;;;;;;2094348;28;20438;-66
2021/09/26 05:08:16;;;;;;;45.97;22.02;;;18.00;99.90;;;;;;2097611;28;20028;-65
2021/09/26 05:09:17;;;;;;;31.60;19.85;;;18.00;99.90;;;;;;2097052;28;20017;-66
2021/09/26 05:10:18;;;;;;;35.17;19.85;;;18.00;99.90;;;;;;2097406;28;20031;-66
2021/09/26 05:11:18;;;;;;;35.80;20.27;;;18.00;99.90;;;;;;2097799;28;20020;-67
2021/09/26 05:12:19;;;;;;;32.72;19.48;;;18.00;99.90;;;;;;2097473;28;20748;-66
2021/09/26 05:13:20;;;;;;;41.17;19.95;;;18.00;99.90;;;;;;2097881;28;20096;-66
2021/09/26 05:14:21;;;;;;;40.58;20.77;;;18.00;99.90;;;;;;2097413;28;20070;-67
2021/09/26 05:15:22;;;;;;;42.92;20.33;;;18.00;99.90;;;;;;2097642;28;20021;-66
2021/09/26 05:16:22;;;;;;;41.15;19.70;;;18.00;99.90;;;;;;2094676;28;20052;-65
2021/09/26 05:17:23;;;;;;;35.65;20.10;;;18.00;99.90;;;;;;2096434;28;20024;-65
2021/09/26 05:18:24;;;;;;;40.17;20.17;;;18.00;99.90;;;;;;2097477;28;20534;-66
2021/09/26 05:19:25;;;;;;;36.90;21.20;;;18.00;99.90;;;;;;2097297;28;20384;-66
2021/09/26 05:20:25;;;;;;;42.90;20.35;;;18.00;99.90;;;;;;2097449;28;20031;-66
2021/09/26 05:21:26;;;;;;;30.45;20.58;;;18.00;99.90;;;;;;2094505;28;20168;-67
2021/09/26 05:22:27;;;;;;;41.30;19.70;;;18.00;99.90;;;;;;2096633;28;20080;-66
2021/09/26 05:23:28;;;;;;;36.30;20.33;;;18.00;99.90;;;;;;2092770;28;20023;-66